createdAt,value
2018-06-14T00:02:04.957Z,79.60
2018-06-14T00:04:34.137Z,79.70
2018-06-14T00:07:03.333Z,79.80
2018-06-14T00:09:32.505Z,80.30
2018-06-14T00:12:01.689Z,80.30
2018-06-14T00:14:30.850Z,80.20
2018-06-14T00:17:00.032Z,79.90
2018-06-14T00:19:29.226Z,80.00
2018-06-14T00:21:58.417Z,80.20
2018-06-14T00:26:56.565Z,80.10
2018-06-14T00:29:25.901Z,80.00
2018-06-14T00:31:55.132Z,80.20
2018-06-14T00:34:24.309Z,80.20
2018-06-14T00:36:53.505Z,80.50
2018-06-14T00:39:22.693Z,80.00
2018-06-14T00:41:51.918Z,79.80
2018-06-14T00:44:21.106Z,80.00
2018-06-14T00:46:50.290Z,79.80
2018-06-14T00:49:18.737Z,79.80
2018-06-14T00:51:47.933Z,79.20
2018-06-14T00:54:17.105Z,79.40
2018-06-14T00:57:03.490Z,78.10
2018-06-14T00:59:32.722Z,77.10
2018-06-14T01:02:01.931Z,76.60
2018-06-14T01:04:31.097Z,76.60
2018-06-14T01:07:00.272Z,76.20
2018-06-14T01:09:29.657Z,76.90
2018-06-14T01:11:59.353Z,77.00
2018-06-14T01:14:28.539Z,77.00
2018-06-14T01:16:57.709Z,77.10
2018-06-14T01:19:26.946Z,77.50
2018-06-14T01:21:56.149Z,77.20
2018-06-14T01:26:55.506Z,77.30
2018-06-14T01:29:25.584Z,77.30
2018-06-14T01:31:54.761Z,77.40
2018-06-14T01:34:23.908Z,77.50
2018-06-14T01:36:53.045Z,77.00
2018-06-14T01:39:22.185Z,77.30
2018-06-14T01:41:51.330Z,77.00
2018-06-14T01:44:20.781Z,76.70
2018-06-14T01:46:49.909Z,77.00
2018-06-14T01:49:19.054Z,77.10
2018-06-14T01:51:48.199Z,77.40
2018-06-14T01:54:17.321Z,77.40
2018-06-14T01:56:46.469Z,77.00
2018-06-14T01:59:15.694Z,76.80
2018-06-14T02:01:44.822Z,77.00
2018-06-14T02:04:13.953Z,77.10
2018-06-14T02:06:43.081Z,77.10
2018-06-14T02:09:12.217Z,77.20
2018-06-14T02:11:41.345Z,77.30
2018-06-14T02:14:10.485Z,77.50
2018-06-14T02:16:39.626Z,77.40
2018-06-14T02:19:15.046Z,77.50
2018-06-14T02:21:44.186Z,76.90
2018-06-14T02:24:13.316Z,76.80
2018-06-14T02:26:42.465Z,77.10
2018-06-14T02:29:11.609Z,77.20
2018-06-14T02:31:40.745Z,77.30
2018-06-14T02:34:09.869Z,76.80
2018-06-14T02:36:39.009Z,76.50
2018-06-14T02:39:08.192Z,76.00
2018-06-14T02:41:37.329Z,76.30
2018-06-14T02:44:06.462Z,76.00
2018-06-14T02:46:35.601Z,76.20
2018-06-14T02:49:04.867Z,76.40
2018-06-14T02:51:33.981Z,77.40
2018-06-14T02:54:03.122Z,77.10
2018-06-14T02:59:01.186Z,77.40
2018-06-14T03:01:30.507Z,77.40
2018-06-14T03:03:59.626Z,77.20
2018-06-14T03:06:28.769Z,77.00
2018-06-14T03:08:57.910Z,77.10
2018-06-14T03:11:27.041Z,77.10
2018-06-14T03:13:56.409Z,76.70
2018-06-14T03:16:25.542Z,76.90
2018-06-14T03:18:54.669Z,77.50
2018-06-14T03:21:23.822Z,78.10
2018-06-14T03:23:52.957Z,78.60
2018-06-14T03:26:22.106Z,78.80
2018-06-14T03:28:51.252Z,78.80
2018-06-14T03:31:20.374Z,78.30
2018-06-14T03:36:18.485Z,77.80
2018-06-14T03:38:47.637Z,78.00
2018-06-14T03:41:16.780Z,78.00
2018-06-14T03:43:45.924Z,77.80
2018-06-14T03:46:15.061Z,77.90
2018-06-14T03:48:44.200Z,78.10
2018-06-14T03:51:13.357Z,77.70
2018-06-14T03:53:42.494Z,77.60
2018-06-14T03:56:11.649Z,77.80
2018-06-14T03:58:40.863Z,77.60
2018-06-14T04:01:09.993Z,77.70
2018-06-14T04:03:39.141Z,77.90
2018-06-14T04:06:14.511Z,78.40
2018-06-14T04:08:43.647Z,77.30
2018-06-14T04:11:12.773Z,76.80
2018-06-14T04:13:41.918Z,76.80
2018-06-14T04:16:11.049Z,76.40
2018-06-14T04:18:40.229Z,76.30
2018-06-14T04:21:09.321Z,76.90
2018-06-14T04:23:38.482Z,76.90
2018-06-14T04:26:07.637Z,77.50
2018-06-14T04:28:36.774Z,77.10
2018-06-14T04:31:05.925Z,77.20
2018-06-14T04:33:35.069Z,77.40
2018-06-14T04:36:04.197Z,77.30
2018-06-14T04:38:33.333Z,77.20
2018-06-14T04:41:02.502Z,77.10
2018-06-14T04:43:31.628Z,76.40
2018-06-14T04:46:01.049Z,75.50
2018-06-14T04:48:30.168Z,75.80
2018-06-14T04:50:59.332Z,75.90
2018-06-14T04:53:28.522Z,75.70
2018-06-14T04:55:57.702Z,75.90
2018-06-14T04:58:27.125Z,75.30
2018-06-14T05:00:56.262Z,75.50
2018-06-14T05:03:25.389Z,75.50
2018-06-14T05:05:54.522Z,76.40
2018-06-14T05:08:24.941Z,76.90
2018-06-14T05:10:55.356Z,76.90
2018-06-14T05:13:24.756Z,76.40
2018-06-14T05:15:54.403Z,75.60
2018-06-14T05:18:24.593Z,76.30
2018-06-14T05:20:54.225Z,77.10
2018-06-14T05:23:23.368Z,76.60
2018-06-14T05:25:52.597Z,75.20
2018-06-14T05:28:21.836Z,74.70
2018-06-14T05:30:51.033Z,74.50
2018-06-14T05:33:20.197Z,74.70
2018-06-14T05:35:49.382Z,74.90
2018-06-14T05:38:18.569Z,75.60
2018-06-14T05:40:47.766Z,76.00
2018-06-14T05:43:16.946Z,75.10
2018-06-14T05:45:46.137Z,74.90
2018-06-14T05:48:15.317Z,73.70
2018-06-14T05:50:44.499Z,73.70
2018-06-14T05:53:13.680Z,73.00
2018-06-14T05:55:43.101Z,72.80
2018-06-14T05:58:12.297Z,71.90
2018-06-14T06:00:42.181Z,72.00
2018-06-14T06:03:11.514Z,71.70
2018-06-14T06:05:40.834Z,73.10
2018-06-14T06:08:09.998Z,72.80
2018-06-14T06:10:39.492Z,73.40
2018-06-14T06:13:08.677Z,72.20
2018-06-14T06:15:37.840Z,69.10
2018-06-14T06:18:07.033Z,70.00
2018-06-14T06:20:36.213Z,69.50
2018-06-14T06:23:05.494Z,68.30
2018-06-14T06:25:34.706Z,67.40
2018-06-14T06:28:03.933Z,67.40
2018-06-14T06:30:33.354Z,68.00
2018-06-14T06:33:02.566Z,66.80
2018-06-14T06:35:31.801Z,67.30
2018-06-14T06:38:00.977Z,68.10
2018-06-14T06:40:30.145Z,66.80
2018-06-14T06:42:59.327Z,66.70
2018-06-14T06:45:28.514Z,67.00
2018-06-14T06:47:57.689Z,67.40
2018-06-14T06:50:26.907Z,67.40
2018-06-14T06:52:56.106Z,66.10
2018-06-14T06:55:25.273Z,65.80
2018-06-14T06:57:54.454Z,66.90
2018-06-14T07:00:23.753Z,66.50
2018-06-14T07:02:52.926Z,64.70
2018-06-14T07:05:22.085Z,65.20
2018-06-14T07:07:51.266Z,65.30
2018-06-14T07:10:20.432Z,66.40
2018-06-14T07:12:49.662Z,61.50
2018-06-14T07:15:18.822Z,62.90
2018-06-14T07:17:47.962Z,64.10
2018-06-14T07:20:17.101Z,66.30
2018-06-14T07:22:46.220Z,66.50
2018-06-14T07:25:15.349Z,67.10
2018-06-14T07:27:44.545Z,66.20
2018-06-14T07:30:13.622Z,67.20
2018-06-14T07:32:42.820Z,65.60
2018-06-14T07:35:11.974Z,67.30
2018-06-14T07:37:41.098Z,66.80
2018-06-14T07:40:10.246Z,68.30
2018-06-14T07:42:39.397Z,67.80
2018-06-14T07:45:08.830Z,66.50
2018-06-14T07:47:37.974Z,68.40
2018-06-14T07:50:07.189Z,68.70
2018-06-14T07:52:36.385Z,68.40
2018-06-14T07:57:34.454Z,63.80
2018-06-14T08:00:03.621Z,63.70
2018-06-14T08:02:32.999Z,63.40
2018-06-14T08:05:02.131Z,64.80
2018-06-14T08:07:31.281Z,63.50
2018-06-14T08:10:00.417Z,63.50
2018-06-14T08:12:29.636Z,62.70
2018-06-14T08:14:58.725Z,63.40
2018-06-14T08:17:27.993Z,62.60
2018-06-14T08:19:57.121Z,64.20
2018-06-14T08:22:26.265Z,63.70
2018-06-14T08:24:55.557Z,63.70
2018-06-14T08:27:24.695Z,63.50
2018-06-14T08:29:53.821Z,63.20
2018-06-14T08:32:22.961Z,62.70
2018-06-14T08:34:52.113Z,61.70
2018-06-14T08:37:21.747Z,61.50
2018-06-14T08:39:50.893Z,62.40
2018-06-14T08:42:20.014Z,62.20
2018-06-14T08:44:49.177Z,62.20
2018-06-14T08:47:18.318Z,59.00
2018-06-14T08:49:47.550Z,60.30
2018-06-14T08:52:16.693Z,59.80
2018-06-14T08:54:45.885Z,59.50
2018-06-14T08:57:15.337Z,59.40
2018-06-14T08:59:44.513Z,59.40
2018-06-14T09:02:13.684Z,60.10
2018-06-14T09:04:42.872Z,61.60
2018-06-14T09:07:12.033Z,62.10
2018-06-14T09:09:41.226Z,59.50
2018-06-14T09:12:10.397Z,61.00
2018-06-14T09:14:39.563Z,60.80
2018-06-14T09:17:08.737Z,59.10
2018-06-14T09:19:37.989Z,58.40
2018-06-14T09:22:07.722Z,58.50
2018-06-14T09:24:36.904Z,59.10
2018-06-14T09:27:06.311Z,59.40
2018-06-14T09:29:35.502Z,59.90
2018-06-14T09:32:04.668Z,59.60
2018-06-14T09:34:33.845Z,60.00
2018-06-14T09:37:03.034Z,60.80
2018-06-14T09:39:32.202Z,61.20
2018-06-14T09:42:01.365Z,60.30
2018-06-14T09:44:30.521Z,57.80
2018-06-14T09:46:59.701Z,59.40
2018-06-14T09:49:28.821Z,60.10
2018-06-14T09:51:57.949Z,60.80
2018-06-14T09:54:27.097Z,61.10
2018-06-14T09:56:56.235Z,60.60
2018-06-14T09:59:25.353Z,58.60
2018-06-14T10:01:54.493Z,59.50
2018-06-14T10:04:23.620Z,58.60
2018-06-14T10:06:52.760Z,58.90
2018-06-14T10:09:21.906Z,58.90
2018-06-14T10:11:51.042Z,60.00
2018-06-14T10:14:20.165Z,59.80
2018-06-14T10:16:49.494Z,57.50
2018-06-14T10:19:18.650Z,57.90
2018-06-14T10:24:16.715Z,53.00
2018-06-14T10:26:45.869Z,52.70
2018-06-14T10:29:15.005Z,56.60
2018-06-14T10:31:44.126Z,57.20
2018-06-14T10:34:13.277Z,57.80
2018-06-14T10:36:42.470Z,55.90
2018-06-14T10:39:11.599Z,57.00
2018-06-14T10:41:40.841Z,53.50
2018-06-14T10:44:10.629Z,50.70
2018-06-14T10:46:39.768Z,52.30
2018-06-14T10:49:08.909Z,51.30
2018-06-14T10:51:38.057Z,52.40
2018-06-14T10:54:07.193Z,52.90
2018-06-14T10:56:36.325Z,54.30
2018-06-14T10:59:05.484Z,55.00
2018-06-14T11:01:34.613Z,54.30
2018-06-14T11:04:03.737Z,54.10
2018-06-14T11:06:33.105Z,54.90
2018-06-14T11:09:02.285Z,54.30
2018-06-14T11:11:31.462Z,54.70
2018-06-14T11:14:00.646Z,54.50
2018-06-14T11:16:29.825Z,55.50
2018-06-14T11:18:59.273Z,55.20
2018-06-14T11:21:28.706Z,54.10
2018-06-14T11:23:58.057Z,57.10
2018-06-14T11:26:28.013Z,56.30
2018-06-14T11:28:57.309Z,56.20
2018-06-14T11:31:26.490Z,58.30
2018-06-14T11:33:55.665Z,58.40
2018-06-14T11:36:24.894Z,57.10
2018-06-14T11:38:54.082Z,57.40
2018-06-14T11:41:23.257Z,56.20
2018-06-14T11:43:52.533Z,57.00
2018-06-14T11:46:21.737Z,56.50
2018-06-14T11:48:50.938Z,56.10
2018-06-14T11:51:20.061Z,57.60
2018-06-14T11:53:49.181Z,55.90
2018-06-14T11:56:18.326Z,56.10
2018-06-14T11:58:47.483Z,55.30
2018-06-14T12:01:16.681Z,56.40
2018-06-14T12:03:45.771Z,57.80
2018-06-14T12:06:14.906Z,55.00
2018-06-14T12:08:44.038Z,54.60
2018-06-14T12:11:13.189Z,56.60
2018-06-14T12:13:42.309Z,53.60
2018-06-14T12:16:11.434Z,54.60
2018-06-14T12:18:40.583Z,54.30
2018-06-14T12:21:09.714Z,55.30
2018-06-14T12:23:38.858Z,54.30
2018-06-14T12:26:08.013Z,54.20
2018-06-14T12:28:37.144Z,55.40
2018-06-14T12:31:06.269Z,56.50
2018-06-14T12:33:35.409Z,55.40
2018-06-14T12:36:04.593Z,54.90
2018-06-14T12:38:33.719Z,55.10
2018-06-14T12:41:02.854Z,56.30
2018-06-14T12:43:32.116Z,54.20
2018-06-14T12:46:01.247Z,54.50
2018-06-14T12:48:30.372Z,55.50
2018-06-14T12:50:59.728Z,52.10
2018-06-14T12:53:28.890Z,53.00
2018-06-14T12:55:58.025Z,52.80
2018-06-14T12:58:27.321Z,53.40
2018-06-14T13:00:56.453Z,51.40
2018-06-14T13:03:25.689Z,52.50
2018-06-14T13:05:54.849Z,51.40
2018-06-14T13:08:23.971Z,52.40
2018-06-14T13:10:53.117Z,53.10
2018-06-14T13:13:22.269Z,52.70
2018-06-14T13:15:51.450Z,52.50
2018-06-14T13:18:20.551Z,50.70
2018-06-14T13:20:49.675Z,52.90
2018-06-14T13:23:18.807Z,55.10
2018-06-14T13:25:47.977Z,54.90
2018-06-14T13:28:17.109Z,55.50
2018-06-14T13:30:46.252Z,52.10
2018-06-14T13:33:15.397Z,51.70
2018-06-14T13:35:44.544Z,52.20
2018-06-14T13:38:13.688Z,49.90
2018-06-14T13:40:42.837Z,50.60
2018-06-14T13:43:12.004Z,51.20
2018-06-14T13:45:41.166Z,51.90
2018-06-14T13:48:10.306Z,51.10
2018-06-14T13:50:39.508Z,50.70
2018-06-14T13:53:08.586Z,51.20
2018-06-14T13:55:37.709Z,50.30
2018-06-14T13:58:06.866Z,53.20
2018-06-14T14:00:36.033Z,51.10
2018-06-14T14:03:05.160Z,51.60
2018-06-14T14:05:34.301Z,54.10
2018-06-14T14:08:03.433Z,52.80
2018-06-14T14:10:32.561Z,54.30
2018-06-14T14:13:01.713Z,52.30
2018-06-14T14:15:30.850Z,52.10
2018-06-14T14:18:00.055Z,52.10
2018-06-14T14:20:29.175Z,50.30
2018-06-14T14:22:58.305Z,51.80
2018-06-14T14:25:27.514Z,52.80
2018-06-14T14:27:56.738Z,52.40
2018-06-14T14:30:26.145Z,52.30
2018-06-14T14:32:55.321Z,49.70
2018-06-14T14:35:24.785Z,48.90
2018-06-14T14:37:53.993Z,50.40
2018-06-14T14:40:23.199Z,51.40
2018-06-14T14:42:52.419Z,52.00
2018-06-14T14:45:21.601Z,51.50
2018-06-14T14:47:50.777Z,52.10
2018-06-14T14:50:19.961Z,52.00
2018-06-14T14:52:49.130Z,52.70
2018-06-14T14:55:18.309Z,54.10
2018-06-14T14:57:47.505Z,54.30
2018-06-14T15:00:17.525Z,52.30
2018-06-14T15:02:46.733Z,52.90
2018-06-14T15:05:15.943Z,51.50
2018-06-14T15:07:45.129Z,50.80
2018-06-14T15:10:14.318Z,52.30
2018-06-14T15:12:43.490Z,53.40
2018-06-14T15:15:12.680Z,53.40
2018-06-14T15:17:41.867Z,51.40
2018-06-14T15:20:11.038Z,52.90
2018-06-14T15:22:40.226Z,53.50
2018-06-14T15:25:09.408Z,52.10
2018-06-14T15:27:38.532Z,53.60
2018-06-14T15:30:07.749Z,54.00
2018-06-14T15:32:36.873Z,54.20
2018-06-14T15:35:06.014Z,53.90
2018-06-14T15:37:35.150Z,54.00
2018-06-14T15:40:04.305Z,52.90
2018-06-14T15:42:33.437Z,53.30
2018-06-14T15:45:02.577Z,53.60
2018-06-14T15:47:31.714Z,54.10
2018-06-14T15:50:00.841Z,54.10
2018-06-14T15:52:29.977Z,54.10
2018-06-14T15:55:16.254Z,51.80
2018-06-14T15:57:45.381Z,53.10
2018-06-14T16:00:14.501Z,53.90
2018-06-14T16:02:43.650Z,55.10
2018-06-14T16:05:16.182Z,55.60
2018-06-14T16:07:45.805Z,53.80
2018-06-14T16:10:15.229Z,53.90
2018-06-14T16:12:44.354Z,53.50
2018-06-14T16:15:13.570Z,53.20
2018-06-14T16:17:42.696Z,52.70
2018-06-14T16:20:11.849Z,54.60
2018-06-14T16:22:40.985Z,54.40
2018-06-14T16:25:10.113Z,54.60
2018-06-14T16:27:39.257Z,53.80
2018-06-14T16:30:08.389Z,53.50
2018-06-14T16:32:37.529Z,53.30
2018-06-14T16:35:06.705Z,52.90
2018-06-14T16:37:35.844Z,53.80
2018-06-14T16:40:04.993Z,54.60
2018-06-14T16:42:34.130Z,54.50
2018-06-14T16:45:03.257Z,56.00
2018-06-14T16:47:32.420Z,56.00
2018-06-14T16:50:01.609Z,55.70
2018-06-14T16:52:30.747Z,55.90
2018-06-14T16:54:59.875Z,54.50
2018-06-14T16:57:29.016Z,55.50
2018-06-14T16:59:58.142Z,56.00
2018-06-14T17:08:38.719Z,56.50
2018-06-14T17:11:08.134Z,56.00
2018-06-14T17:13:37.583Z,55.70
2018-06-14T17:16:07.093Z,55.70
2018-06-14T17:18:36.554Z,55.70
2018-06-14T17:21:06.402Z,55.80
2018-06-14T17:23:35.896Z,55.10
2018-06-14T17:26:05.406Z,55.60
2018-06-14T17:28:34.829Z,55.60
2018-06-14T17:31:04.212Z,56.20
2018-06-14T17:33:33.675Z,55.80
2018-06-14T17:36:03.109Z,55.30
2018-06-14T17:38:33.336Z,55.20
2018-06-14T17:41:02.916Z,55.70
2018-06-14T17:43:32.252Z,56.20
2018-06-14T17:46:01.779Z,56.30
2018-06-14T17:48:31.270Z,56.10
2018-06-14T17:51:00.729Z,57.00
2018-06-14T17:53:30.645Z,56.30
2018-06-14T17:56:00.100Z,56.70
2018-06-14T17:58:29.490Z,57.10
2018-06-14T18:00:59.037Z,57.20
2018-06-14T18:03:28.548Z,56.60
2018-06-14T18:05:58.329Z,57.00
2018-06-14T18:08:27.831Z,58.30
2018-06-14T18:13:26.595Z,58.00
2018-06-14T18:15:56.042Z,57.50
2018-06-14T18:18:32.271Z,56.60
2018-06-14T18:21:01.673Z,57.80
2018-06-14T18:23:31.279Z,57.50
2018-06-14T18:26:00.686Z,57.90
2018-06-14T18:28:30.129Z,58.10
2018-06-14T18:30:59.629Z,59.00
2018-06-14T18:33:29.054Z,59.60
2018-06-14T18:35:58.463Z,59.00
2018-06-14T18:38:28.096Z,58.80
2018-06-14T18:40:57.727Z,58.90
2018-06-14T18:43:27.369Z,59.00
2018-06-14T18:45:56.995Z,59.40
2018-06-14T18:48:26.607Z,59.10
2018-06-14T18:50:56.117Z,59.50
2018-06-14T18:53:25.705Z,60.00
2018-06-14T18:55:55.549Z,60.00
2018-06-14T18:58:25.249Z,60.80
2018-06-14T19:00:55.132Z,60.70
2018-06-14T19:03:24.676Z,60.00
2018-06-14T19:08:23.619Z,61.00
2018-06-14T19:10:53.183Z,60.90
2018-06-14T19:13:23.460Z,61.60
2018-06-14T19:15:53.037Z,61.90
2018-06-14T19:18:23.101Z,62.00
2018-06-14T19:20:52.907Z,62.20
2018-06-14T19:23:22.606Z,62.40
2018-06-14T19:25:52.399Z,61.70
2018-06-14T19:28:23.201Z,62.50
2018-06-14T19:30:53.271Z,62.40
2018-06-14T19:33:23.076Z,62.70
2018-06-14T19:35:52.603Z,63.60
2018-06-14T19:38:22.200Z,63.90
2018-06-14T19:40:53.305Z,64.00
2018-06-14T19:43:23.108Z,64.70
2018-06-14T19:45:52.698Z,64.70
2018-06-14T19:48:22.209Z,64.50
2018-06-14T19:50:51.653Z,65.10
2018-06-14T19:53:21.084Z,65.00
2018-06-14T19:55:50.507Z,65.10
2018-06-14T19:58:20.102Z,65.10
2018-06-14T20:00:49.504Z,65.00
2018-06-14T20:03:18.892Z,65.10
2018-06-14T20:05:48.982Z,65.70
2018-06-14T20:08:18.454Z,66.70
2018-06-14T20:10:47.821Z,66.10
2018-06-14T20:13:17.665Z,66.20
2018-06-14T20:15:47.084Z,66.00
2018-06-14T20:18:16.582Z,66.10
2018-06-14T20:20:46.088Z,66.40
2018-06-14T20:23:15.530Z,66.50
2018-06-14T20:25:45.040Z,67.40
2018-06-14T20:28:14.461Z,67.20
2018-06-14T20:30:44.050Z,67.20
2018-06-14T20:33:13.514Z,66.70
2018-06-14T20:35:43.097Z,66.40
2018-06-14T20:38:12.597Z,66.60
2018-06-14T20:40:41.964Z,67.40
2018-06-14T20:43:11.493Z,67.20
2018-06-14T20:48:10.204Z,67.10
2018-06-14T20:50:39.530Z,67.30
2018-06-14T20:53:08.953Z,67.10
2018-06-14T20:55:38.335Z,67.20
2018-06-14T20:58:07.702Z,67.40
2018-06-14T21:00:37.062Z,67.80
2018-06-14T21:03:06.415Z,67.00
2018-06-14T21:05:35.765Z,66.70
2018-06-14T21:08:05.296Z,66.60
2018-06-14T21:10:34.730Z,66.90
2018-06-14T21:13:04.145Z,67.80
2018-06-14T21:15:33.473Z,67.90
2018-06-14T21:18:02.840Z,68.00
2018-06-14T21:20:32.226Z,67.70
2018-06-14T21:23:01.598Z,67.40
2018-06-14T21:25:30.941Z,67.00
2018-06-14T21:28:00.373Z,66.10
2018-06-14T21:30:29.777Z,65.80
2018-06-14T21:32:59.148Z,66.20
2018-06-14T21:35:28.635Z,66.00
2018-06-14T21:37:58.046Z,66.70
2018-06-14T21:40:27.709Z,66.90
2018-06-14T21:42:57.127Z,67.20
2018-06-14T21:45:26.632Z,67.40
2018-06-14T21:47:56.002Z,67.60
2018-06-14T21:50:25.519Z,67.50
2018-06-14T21:52:54.934Z,67.70
2018-06-14T21:55:24.629Z,68.00
2018-06-14T21:57:54.078Z,68.20
2018-06-14T22:00:26.809Z,68.60
2018-06-14T22:03:01.436Z,68.40
2018-06-14T22:05:30.824Z,68.50
2018-06-14T22:08:00.222Z,68.80
2018-06-14T22:10:29.826Z,68.90
2018-06-14T22:12:59.162Z,69.10
2018-06-14T22:15:28.498Z,69.10
2018-06-14T22:17:57.973Z,69.10
2018-06-14T22:20:27.365Z,69.40
2018-06-14T22:22:56.719Z,69.40
2018-06-14T22:25:26.083Z,69.60
2018-06-14T22:27:55.642Z,70.30
2018-06-14T22:30:25.082Z,70.30
2018-06-14T22:33:11.530Z,70.70
2018-06-14T22:35:40.973Z,70.90
2018-06-14T22:38:10.416Z,71.00
2018-06-14T22:40:42.572Z,71.30
2018-06-14T22:43:11.933Z,71.60
2018-06-14T22:45:41.309Z,71.80
2018-06-14T22:48:10.673Z,71.80
2018-06-14T22:50:56.927Z,71.80
2018-06-14T22:53:26.375Z,71.90
2018-06-14T22:55:55.861Z,72.20
2018-06-14T22:58:25.339Z,72.40
2018-06-14T23:02:00.474Z,72.60
2018-06-14T23:04:29.972Z,72.90
2018-06-14T23:06:59.585Z,72.90
2018-06-14T23:10:44.562Z,73.20
2018-06-14T23:13:18.905Z,73.20
2018-06-14T23:15:48.430Z,73.60
2018-06-14T23:18:18.229Z,74.00
2018-06-14T23:20:47.630Z,74.30
2018-06-14T23:23:17.007Z,74.10
2018-06-14T23:25:46.534Z,74.30
2018-06-14T23:28:15.858Z,74.30
2018-06-14T23:30:45.289Z,74.30
2018-06-14T23:33:14.590Z,74.50
2018-06-14T23:35:44.044Z,74.50
2018-06-14T23:38:13.909Z,74.60
2018-06-14T23:40:43.613Z,73.80
2018-06-14T23:43:12.974Z,73.20
2018-06-14T23:45:42.415Z,72.90
2018-06-14T23:48:11.791Z,73.20
2018-06-14T23:50:41.204Z,73.30
2018-06-14T23:53:10.573Z,74.10
2018-06-14T23:55:39.893Z,74.30
2018-06-14T23:58:09.381Z,73.90
